Skip Navigation Links
NOAA logo - Click to go to the NOAA homepage
NOAA's National Weather Service
Alaska Aviation Weather Unit
  NWS logo - Click to go to the NWS homepage
Left Navbar Graphic     23 AKDT = 07 GMT

   
NOAA is celebrating 200 years of science, service, and stewardship. Visit the NOAA 200th celebration Web site to learn more.
USA.gov is the U.S. Government's official Web portal to all Federal, state and local government Web resources and services.
Facebook
NWS on Facebook

AAWU Home :: Display TAF Add Bookmark
METAR PABL 240156Z AUTO 09006KT 10SM CLR 07/M08 A2975 RMK AO2 SLP076
 T00671078=

METAR PABL 240256Z AUTO 08004KT 10SM CLR 06/M08 A2973 RMK AO2 SLP071
 T00611083 56012=

METAR PABL 240356Z AUTO 08006KT 10SM CLR 06/M05 A2973 RMK AO2 SLP069
 T00561050=

METAR PABL 240456Z AUTO 07004KT 10SM CLR 04/M04 A2972 RMK AO2 SLP067
     T00391044=

METAR PABL 240556Z AUTO 13005KT 10SM CLR 02/M05 A2972 RMK AO2 SLP067
     T00221050 10067 20022 55004 FZRANO=

METAR PABL 240656Z AUTO 00000KT 10SM CLR 01/M04 A2972 RMK AO2 SLP065
 T00111044 FZRANO=


NOAA's National Weather Service
Alaska Aviation Weather Unit
6930 Sand Lake Road
Anchorage, AK 99502-1845
Disclaimer
Credits
Glossary
Privacy Policy
About Us
Career Opportunities
Contact AAWU Internet Services Site last modified: April, 17th 2012